sensor_id;sensor_type;location;lat;lon;timestamp;P1;durP1;ratioP1;P2;durP2;ratioP2
10667;SDS011;5382;42.136;24.796;2023-04-30T00:02:07;5.43;;;4.35;;
10667;SDS011;5382;42.136;24.796;2023-04-30T00:04:34;7.82;;;4.50;;
10667;SDS011;5382;42.136;24.796;2023-04-30T00:07:02;7.00;;;4.20;;
10667;SDS011;5382;42.136;24.796;2023-04-30T00:09:29;7.20;;;4.25;;
10667;SDS011;5382;42.136;24.796;2023-04-30T00:11:55;6.75;;;4.43;;
10667;SDS011;5382;42.136;24.796;2023-04-30T00:14:22;5.90;;;4.70;;
10667;SDS011;5382;42.136;24.796;2023-04-30T00:16:49;6.28;;;3.92;;
10667;SDS011;5382;42.136;24.796;2023-04-30T00:19:16;5.70;;;4.70;;
10667;SDS011;5382;42.136;24.796;2023-04-30T00:21:42;7.45;;;5.05;;
10667;SDS011;5382;42.136;24.796;2023-04-30T00:24:11;9.45;;;4.70;;
10667;SDS011;5382;42.136;24.796;2023-04-30T00:26:38;5.72;;;4.70;;
10667;SDS011;5382;42.136;24.796;2023-04-30T00:29:05;6.03;;;5.03;;
10667;SDS011;5382;42.136;24.796;2023-04-30T00:31:32;6.60;;;5.30;;
10667;SDS011;5382;42.136;24.796;2023-04-30T00:33:58;7.50;;;5.35;;
10667;SDS011;5382;42.136;24.796;2023-04-30T00:36:25;10.13;;;5.00;;
10667;SDS011;5382;42.136;24.796;2023-04-30T00:38:52;7.35;;;5.13;;
10667;SDS011;5382;42.136;24.796;2023-04-30T00:41:20;7.50;;;5.20;;
10667;SDS011;5382;42.136;24.796;2023-04-30T00:43:48;8.57;;;5.82;;
10667;SDS011;5382;42.136;24.796;2023-04-30T00:46:15;5.90;;;4.60;;
10667;SDS011;5382;42.136;24.796;2023-04-30T00:48:42;8.13;;;5.05;;
10667;SDS011;5382;42.136;24.796;2023-04-30T00:51:08;6.28;;;4.40;;
10667;SDS011;5382;42.136;24.796;2023-04-30T00:53:36;8.02;;;4.93;;
10667;SDS011;5382;42.136;24.796;2023-04-30T00:56:05;6.80;;;5.78;;
10667;SDS011;5382;42.136;24.796;2023-04-30T00:58:36;7.40;;;4.80;;
10667;SDS011;5382;42.136;24.796;2023-04-30T01:01:03;8.10;;;4.93;;
10667;SDS011;5382;42.136;24.796;2023-04-30T01:03:31;8.48;;;4.93;;
10667;SDS011;5382;42.136;24.796;2023-04-30T01:05:59;6.35;;;4.53;;
10667;SDS011;5382;42.136;24.796;2023-04-30T01:08:27;5.97;;;4.78;;
10667;SDS011;5382;42.136;24.796;2023-04-30T01:10:55;6.22;;;4.10;;
10667;SDS011;5382;42.136;24.796;2023-04-30T01:13:33;4.53;;;3.92;;
10667;SDS011;5382;42.136;24.796;2023-04-30T01:16:12;6.65;;;4.72;;
10667;SDS011;5382;42.136;24.796;2023-04-30T01:18:45;6.05;;;4.15;;
10667;SDS011;5382;42.136;24.796;2023-04-30T01:21:16;5.97;;;4.70;;
10667;SDS011;5382;42.136;24.796;2023-04-30T01:23:54;5.43;;;3.80;;
10667;SDS011;5382;42.136;24.796;2023-04-30T01:26:58;6.13;;;3.80;;
10667;SDS011;5382;42.136;24.796;2023-04-30T01:29:33;8.13;;;3.90;;
10667;SDS011;5382;42.136;24.796;2023-04-30T01:32:01;4.53;;;3.63;;
10667;SDS011;5382;42.136;24.796;2023-04-30T01:34:28;6.80;;;3.70;;
10667;SDS011;5382;42.136;24.796;2023-04-30T01:36:58;4.75;;;4.00;;
10667;SDS011;5382;42.136;24.796;2023-04-30T01:39:45;6.82;;;4.20;;
10667;SDS011;5382;42.136;24.796;2023-04-30T01:42:21;7.25;;;4.40;;
10667;SDS011;5382;42.136;24.796;2023-04-30T01:45:01;5.35;;;3.28;;
10667;SDS011;5382;42.136;24.796;2023-04-30T01:47:50;4.18;;;3.10;;
10667;SDS011;5382;42.136;24.796;2023-04-30T01:50:24;8.32;;;3.60;;
10667;SDS011;5382;42.136;24.796;2023-04-30T01:52:58;5.70;;;3.72;;
10667;SDS011;5382;42.136;24.796;2023-04-30T01:55:27;5.07;;;3.53;;
10667;SDS011;5382;42.136;24.796;2023-04-30T01:58:01;6.68;;;3.70;;
10667;SDS011;5382;42.136;24.796;2023-04-30T02:00:31;4.78;;;3.58;;
10667;SDS011;5382;42.136;24.796;2023-04-30T02:02:59;4.85;;;3.20;;
10667;SDS011;5382;42.136;24.796;2023-04-30T02:05:25;4.35;;;3.78;;
10667;SDS011;5382;42.136;24.796;2023-04-30T02:07:53;12.38;;;5.35;;
10667;SDS011;5382;42.136;24.796;2023-04-30T02:10:20;8.23;;;5.05;;
10667;SDS011;5382;42.136;24.796;2023-04-30T02:12:49;6.03;;;3.92;;
10667;SDS011;5382;42.136;24.796;2023-04-30T02:15:16;5.03;;;3.40;;
10667;SDS011;5382;42.136;24.796;2023-04-30T02:17:44;6.32;;;3.28;;
10667;SDS011;5382;42.136;24.796;2023-04-30T02:20:12;4.28;;;3.60;;
10667;SDS011;5382;42.136;24.796;2023-04-30T02:22:38;4.40;;;3.50;;
10667;SDS011;5382;42.136;24.796;2023-04-30T02:25:05;3.88;;;3.42;;
10667;SDS011;5382;42.136;24.796;2023-04-30T02:27:32;7.45;;;3.60;;
10667;SDS011;5382;42.136;24.796;2023-04-30T02:30:00;4.72;;;3.22;;
10667;SDS011;5382;42.136;24.796;2023-04-30T02:32:27;4.32;;;3.20;;
10667;SDS011;5382;42.136;24.796;2023-04-30T02:34:55;3.63;;;3.30;;
10667;SDS011;5382;42.136;24.796;2023-04-30T02:37:22;5.63;;;3.47;;
10667;SDS011;5382;42.136;24.796;2023-04-30T02:39:49;3.97;;;3.10;;
10667;SDS011;5382;42.136;24.796;2023-04-30T02:42:16;5.00;;;3.38;;
10667;SDS011;5382;42.136;24.796;2023-04-30T02:44:43;7.47;;;3.35;;
10667;SDS011;5382;42.136;24.796;2023-04-30T02:47:10;5.35;;;3.28;;
10667;SDS011;5382;42.136;24.796;2023-04-30T02:49:37;5.55;;;3.22;;
10667;SDS011;5382;42.136;24.796;2023-04-30T02:52:05;5.03;;;3.40;;
10667;SDS011;5382;42.136;24.796;2023-04-30T02:54:33;5.32;;;3.20;;
10667;SDS011;5382;42.136;24.796;2023-04-30T02:57:00;4.60;;;3.33;;
10667;SDS011;5382;42.136;24.796;2023-04-30T02:59:27;4.95;;;3.05;;
10667;SDS011;5382;42.136;24.796;2023-04-30T03:01:54;5.28;;;3.03;;
10667;SDS011;5382;42.136;24.796;2023-04-30T03:04:20;3.85;;;3.28;;
10667;SDS011;5382;42.136;24.796;2023-04-30T03:06:47;3.90;;;3.08;;
10667;SDS011;5382;42.136;24.796;2023-04-30T03:09:15;4.10;;;3.10;;
10667;SDS011;5382;42.136;24.796;2023-04-30T03:11:42;4.32;;;3.00;;
10667;SDS011;5382;42.136;24.796;2023-04-30T03:14:09;7.45;;;3.13;;
10667;SDS011;5382;42.136;24.796;2023-04-30T03:16:35;4.13;;;3.00;;
10667;SDS011;5382;42.136;24.796;2023-04-30T03:19:02;4.40;;;3.05;;
10667;SDS011;5382;42.136;24.796;2023-04-30T03:21:29;5.10;;;3.20;;
10667;SDS011;5382;42.136;24.796;2023-04-30T03:23:56;3.88;;;3.38;;
10667;SDS011;5382;42.136;24.796;2023-04-30T03:26:24;5.30;;;3.25;;
10667;SDS011;5382;42.136;24.796;2023-04-30T03:28:51;6.90;;;3.25;;
10667;SDS011;5382;42.136;24.796;2023-04-30T03:31:19;4.07;;;3.20;;
10667;SDS011;5382;42.136;24.796;2023-04-30T03:33:46;4.65;;;3.45;;
10667;SDS011;5382;42.136;24.796;2023-04-30T03:36:13;7.15;;;3.55;;
10667;SDS011;5382;42.136;24.796;2023-04-30T03:38:40;5.63;;;3.50;;
10667;SDS011;5382;42.136;24.796;2023-04-30T03:41:07;5.15;;;3.25;;
10667;SDS011;5382;42.136;24.796;2023-04-30T03:43:35;4.40;;;3.58;;
10667;SDS011;5382;42.136;24.796;2023-04-30T03:46:02;4.13;;;3.08;;
10667;SDS011;5382;42.136;24.796;2023-04-30T03:48:28;6.22;;;3.90;;
10667;SDS011;5382;42.136;24.796;2023-04-30T03:50:55;6.32;;;3.47;;
10667;SDS011;5382;42.136;24.796;2023-04-30T03:53:22;4.38;;;3.25;;
10667;SDS011;5382;42.136;24.796;2023-04-30T03:55:49;4.30;;;3.55;;
10667;SDS011;5382;42.136;24.796;2023-04-30T03:58:16;4.05;;;3.22;;
10667;SDS011;5382;42.136;24.796;2023-04-30T04:00:45;4.90;;;3.60;;
10667;SDS011;5382;42.136;24.796;2023-04-30T04:03:12;5.05;;;3.35;;
10667;SDS011;5382;42.136;24.796;2023-04-30T04:05:39;3.80;;;3.33;;
10667;SDS011;5382;42.136;24.796;2023-04-30T04:08:06;5.60;;;3.60;;
10667;SDS011;5382;42.136;24.796;2023-04-30T04:10:33;3.83;;;3.25;;
10667;SDS011;5382;42.136;24.796;2023-04-30T04:13:00;4.05;;;3.22;;
10667;SDS011;5382;42.136;24.796;2023-04-30T04:15:27;5.65;;;3.33;;
10667;SDS011;5382;42.136;24.796;2023-04-30T04:17:55;4.28;;;3.55;;
10667;SDS011;5382;42.136;24.796;2023-04-30T04:20:22;6.80;;;3.90;;
10667;SDS011;5382;42.136;24.796;2023-04-30T04:22:48;6.07;;;3.85;;
10667;SDS011;5382;42.136;24.796;2023-04-30T04:25:15;7.50;;;4.35;;
10667;SDS011;5382;42.136;24.796;2023-04-30T04:27:43;8.38;;;3.90;;
10667;SDS011;5382;42.136;24.796;2023-04-30T04:30:10;6.07;;;3.83;;
10667;SDS011;5382;42.136;24.796;2023-04-30T04:32:37;6.93;;;4.03;;
10667;SDS011;5382;42.136;24.796;2023-04-30T04:35:13;8.60;;;3.83;;
10667;SDS011;5382;42.136;24.796;2023-04-30T04:37:41;6.15;;;4.03;;
10667;SDS011;5382;42.136;24.796;2023-04-30T04:40:08;7.35;;;4.15;;
10667;SDS011;5382;42.136;24.796;2023-04-30T04:42:35;7.53;;;4.30;;
10667;SDS011;5382;42.136;24.796;2023-04-30T04:45:02;4.78;;;3.90;;
10667;SDS011;5382;42.136;24.796;2023-04-30T04:47:30;8.25;;;3.97;;
10667;SDS011;5382;42.136;24.796;2023-04-30T04:49:57;4.10;;;3.67;;
10667;SDS011;5382;42.136;24.796;2023-04-30T04:52:26;10.02;;;4.35;;
10667;SDS011;5382;42.136;24.796;2023-04-30T04:54:52;8.02;;;4.80;;
10667;SDS011;5382;42.136;24.796;2023-04-30T04:57:19;8.27;;;4.68;;
10667;SDS011;5382;42.136;24.796;2023-04-30T04:59:46;10.80;;;5.10;;
10667;SDS011;5382;42.136;24.796;2023-04-30T05:02:13;14.63;;;4.88;;
10667;SDS011;5382;42.136;24.796;2023-04-30T05:04:39;10.02;;;4.57;;
10667;SDS011;5382;42.136;24.796;2023-04-30T05:07:06;5.85;;;4.50;;
10667;SDS011;5382;42.136;24.796;2023-04-30T05:09:34;7.03;;;4.53;;
10667;SDS011;5382;42.136;24.796;2023-04-30T05:12:01;9.50;;;6.68;;
10667;SDS011;5382;42.136;24.796;2023-04-30T05:14:28;8.63;;;5.85;;
10667;SDS011;5382;42.136;24.796;2023-04-30T05:16:55;6.10;;;4.60;;
10667;SDS011;5382;42.136;24.796;2023-04-30T05:19:21;6.40;;;4.35;;
10667;SDS011;5382;42.136;24.796;2023-04-30T05:21:48;5.13;;;4.63;;
10667;SDS011;5382;42.136;24.796;2023-04-30T05:24:15;8.52;;;4.70;;
10667;SDS011;5382;42.136;24.796;2023-04-30T05:26:43;5.57;;;4.43;;
10667;SDS011;5382;42.136;24.796;2023-04-30T05:29:10;6.13;;;4.40;;
10667;SDS011;5382;42.136;24.796;2023-04-30T05:31:37;6.35;;;5.32;;
10667;SDS011;5382;42.136;24.796;2023-04-30T05:34:04;7.18;;;6.07;;
10667;SDS011;5382;42.136;24.796;2023-04-30T05:36:30;7.18;;;5.90;;
10667;SDS011;5382;42.136;24.796;2023-04-30T05:38:57;6.82;;;5.40;;
10667;SDS011;5382;42.136;24.796;2023-04-30T05:41:24;8.07;;;5.47;;
10667;SDS011;5382;42.136;24.796;2023-04-30T05:43:52;8.90;;;5.90;;
10667;SDS011;5382;42.136;24.796;2023-04-30T05:46:19;12.85;;;6.00;;
10667;SDS011;5382;42.136;24.796;2023-04-30T05:48:45;10.38;;;6.20;;
10667;SDS011;5382;42.136;24.796;2023-04-30T05:51:12;8.77;;;5.97;;
10667;SDS011;5382;42.136;24.796;2023-04-30T05:53:39;8.10;;;5.65;;
10667;SDS011;5382;42.136;24.796;2023-04-30T05:56:06;7.95;;;5.60;;
10667;SDS011;5382;42.136;24.796;2023-04-30T05:58:33;9.02;;;6.40;;
10667;SDS011;5382;42.136;24.796;2023-04-30T06:01:01;8.35;;;6.30;;
10667;SDS011;5382;42.136;24.796;2023-04-30T06:03:28;9.63;;;6.82;;
10667;SDS011;5382;42.136;24.796;2023-04-30T06:05:54;12.10;;;7.43;;
10667;SDS011;5382;42.136;24.796;2023-04-30T06:08:21;11.02;;;6.40;;
10667;SDS011;5382;42.136;24.796;2023-04-30T06:10:48;9.30;;;6.40;;
10667;SDS011;5382;42.136;24.796;2023-04-30T06:13:16;8.80;;;6.32;;
10667;SDS011;5382;42.136;24.796;2023-04-30T06:15:42;7.72;;;6.78;;
10667;SDS011;5382;42.136;24.796;2023-04-30T06:18:12;8.63;;;7.05;;
10667;SDS011;5382;42.136;24.796;2023-04-30T06:20:39;8.48;;;6.50;;
10667;SDS011;5382;42.136;24.796;2023-04-30T06:23:06;8.43;;;6.32;;
10667;SDS011;5382;42.136;24.796;2023-04-30T06:25:32;11.55;;;5.88;;
10667;SDS011;5382;42.136;24.796;2023-04-30T06:27:59;10.02;;;6.15;;
10667;SDS011;5382;42.136;24.796;2023-04-30T06:30:26;10.88;;;6.38;;
10667;SDS011;5382;42.136;24.796;2023-04-30T06:32:54;8.10;;;6.35;;
10667;SDS011;5382;42.136;24.796;2023-04-30T06:35:22;7.28;;;6.10;;
10667;SDS011;5382;42.136;24.796;2023-04-30T06:37:49;10.43;;;5.97;;
10667;SDS011;5382;42.136;24.796;2023-04-30T06:40:16;10.05;;;6.07;;
10667;SDS011;5382;42.136;24.796;2023-04-30T06:42:43;7.47;;;6.40;;
10667;SDS011;5382;42.136;24.796;2023-04-30T06:45:10;7.32;;;6.18;;
10667;SDS011;5382;42.136;24.796;2023-04-30T06:47:39;7.28;;;5.90;;
10667;SDS011;5382;42.136;24.796;2023-04-30T06:50:07;6.75;;;5.18;;
10667;SDS011;5382;42.136;24.796;2023-04-30T06:52:35;7.72;;;5.40;;
10667;SDS011;5382;42.136;24.796;2023-04-30T06:55:02;6.97;;;4.80;;
10667;SDS011;5382;42.136;24.796;2023-04-30T06:57:29;8.05;;;5.50;;
10667;SDS011;5382;42.136;24.796;2023-04-30T06:59:56;7.63;;;5.60;;
10667;SDS011;5382;42.136;24.796;2023-04-30T07:02:24;7.63;;;5.38;;
10667;SDS011;5382;42.136;24.796;2023-04-30T07:04:50;7.32;;;5.00;;
10667;SDS011;5382;42.136;24.796;2023-04-30T07:07:18;7.03;;;5.13;;
10667;SDS011;5382;42.136;24.796;2023-04-30T07:09:46;5.30;;;4.80;;
10667;SDS011;5382;42.136;24.796;2023-04-30T07:12:13;5.00;;;4.50;;
10667;SDS011;5382;42.136;24.796;2023-04-30T07:14:40;5.68;;;5.15;;
10667;SDS011;5382;42.136;24.796;2023-04-30T07:17:08;8.70;;;5.15;;
10667;SDS011;5382;42.136;24.796;2023-04-30T07:19:35;9.10;;;8.25;;
10667;SDS011;5382;42.136;24.796;2023-04-30T07:22:02;8.00;;;5.07;;
10667;SDS011;5382;42.136;24.796;2023-04-30T07:24:29;6.38;;;5.07;;
10667;SDS011;5382;42.136;24.796;2023-04-30T07:26:58;5.65;;;4.90;;
10667;SDS011;5382;42.136;24.796;2023-04-30T07:29:26;5.18;;;4.30;;
10667;SDS011;5382;42.136;24.796;2023-04-30T07:31:54;5.63;;;3.97;;
10667;SDS011;5382;42.136;24.796;2023-04-30T07:34:20;6.82;;;3.47;;
10667;SDS011;5382;42.136;24.796;2023-04-30T07:36:47;5.50;;;4.28;;
10667;SDS011;5382;42.136;24.796;2023-04-30T07:39:14;5.00;;;4.32;;
10667;SDS011;5382;42.136;24.796;2023-04-30T07:41:41;4.50;;;4.00;;
10667;SDS011;5382;42.136;24.796;2023-04-30T07:44:10;5.28;;;4.40;;
10667;SDS011;5382;42.136;24.796;2023-04-30T07:46:37;5.45;;;3.90;;
10667;SDS011;5382;42.136;24.796;2023-04-30T07:49:03;7.43;;;4.78;;
10667;SDS011;5382;42.136;24.796;2023-04-30T07:51:30;8.07;;;4.50;;
10667;SDS011;5382;42.136;24.796;2023-04-30T07:53:58;6.28;;;4.05;;
10667;SDS011;5382;42.136;24.796;2023-04-30T07:56:25;4.20;;;3.78;;
10667;SDS011;5382;42.136;24.796;2023-04-30T07:58:51;3.40;;;3.10;;
10667;SDS011;5382;42.136;24.796;2023-04-30T08:01:22;5.28;;;3.38;;
10667;SDS011;5382;42.136;24.796;2023-04-30T08:03:49;5.35;;;3.15;;
10667;SDS011;5382;42.136;24.796;2023-04-30T08:06:16;5.97;;;4.05;;
10667;SDS011;5382;42.136;24.796;2023-04-30T08:08:42;6.47;;;4.63;;
10667;SDS011;5382;42.136;24.796;2023-04-30T08:11:09;4.55;;;3.50;;
10667;SDS011;5382;42.136;24.796;2023-04-30T08:13:37;4.85;;;3.33;;
10667;SDS011;5382;42.136;24.796;2023-04-30T08:16:04;4.22;;;3.40;;
10667;SDS011;5382;42.136;24.796;2023-04-30T08:18:32;5.30;;;3.20;;
10667;SDS011;5382;42.136;24.796;2023-04-30T08:20:59;5.65;;;3.40;;
10667;SDS011;5382;42.136;24.796;2023-04-30T08:23:26;4.97;;;3.38;;
10667;SDS011;5382;42.136;24.796;2023-04-30T08:25:53;4.35;;;3.40;;
10667;SDS011;5382;42.136;24.796;2023-04-30T08:28:20;3.78;;;3.30;;
10667;SDS011;5382;42.136;24.796;2023-04-30T08:30:46;3.70;;;3.40;;
10667;SDS011;5382;42.136;24.796;2023-04-30T08:33:13;3.03;;;2.80;;
10667;SDS011;5382;42.136;24.796;2023-04-30T08:35:41;4.15;;;2.83;;
10667;SDS011;5382;42.136;24.796;2023-04-30T08:38:08;4.85;;;3.33;;
10667;SDS011;5382;42.136;24.796;2023-04-30T08:40:35;5.00;;;2.78;;
10667;SDS011;5382;42.136;24.796;2023-04-30T08:43:03;3.33;;;2.78;;
10667;SDS011;5382;42.136;24.796;2023-04-30T08:45:31;3.47;;;2.83;;
10667;SDS011;5382;42.136;24.796;2023-04-30T08:47:59;3.80;;;2.60;;
10667;SDS011;5382;42.136;24.796;2023-04-30T08:50:26;5.32;;;2.63;;
10667;SDS011;5382;42.136;24.796;2023-04-30T08:52:54;3.53;;;2.17;;
10667;SDS011;5382;42.136;24.796;2023-04-30T08:55:22;3.58;;;2.50;;
10667;SDS011;5382;42.136;24.796;2023-04-30T08:57:50;2.83;;;2.50;;
10667;SDS011;5382;42.136;24.796;2023-04-30T09:00:17;4.65;;;2.45;;
10667;SDS011;5382;42.136;24.796;2023-04-30T09:02:44;6.53;;;2.75;;
10667;SDS011;5382;42.136;24.796;2023-04-30T09:05:13;4.03;;;2.63;;
10667;SDS011;5382;42.136;24.796;2023-04-30T09:07:41;3.28;;;2.90;;
10667;SDS011;5382;42.136;24.796;2023-04-30T09:10:14;5.90;;;2.90;;
10667;SDS011;5382;42.136;24.796;2023-04-30T09:12:42;4.10;;;2.72;;
10667;SDS011;5382;42.136;24.796;2023-04-30T09:15:10;4.22;;;3.10;;
10667;SDS011;5382;42.136;24.796;2023-04-30T09:17:38;3.22;;;2.58;;
10667;SDS011;5382;42.136;24.796;2023-04-30T09:20:05;3.38;;;2.50;;
10667;SDS011;5382;42.136;24.796;2023-04-30T09:22:33;5.72;;;2.42;;
10667;SDS011;5382;42.136;24.796;2023-04-30T09:25:01;3.20;;;2.20;;
10667;SDS011;5382;42.136;24.796;2023-04-30T09:27:30;4.45;;;2.60;;
10667;SDS011;5382;42.136;24.796;2023-04-30T09:29:56;4.53;;;2.72;;
10667;SDS011;5382;42.136;24.796;2023-04-30T09:32:23;3.33;;;2.33;;
10667;SDS011;5382;42.136;24.796;2023-04-30T09:34:50;4.00;;;2.20;;
10667;SDS011;5382;42.136;24.796;2023-04-30T09:37:17;3.75;;;2.17;;
10667;SDS011;5382;42.136;24.796;2023-04-30T09:39:48;2.75;;;2.13;;
10667;SDS011;5382;42.136;24.796;2023-04-30T09:42:16;2.70;;;2.15;;
10667;SDS011;5382;42.136;24.796;2023-04-30T09:44:45;4.18;;;2.08;;
10667;SDS011;5382;42.136;24.796;2023-04-30T09:47:13;4.10;;;2.35;;
10667;SDS011;5382;42.136;24.796;2023-04-30T09:49:43;3.15;;;2.00;;
10667;SDS011;5382;42.136;24.796;2023-04-30T09:52:15;2.58;;;2.08;;
10667;SDS011;5382;42.136;24.796;2023-04-30T09:54:43;2.90;;;2.03;;
10667;SDS011;5382;42.136;24.796;2023-04-30T09:57:11;3.83;;;2.28;;
10667;SDS011;5382;42.136;24.796;2023-04-30T09:59:41;3.17;;;1.95;;
10667;SDS011;5382;42.136;24.796;2023-04-30T10:02:12;2.92;;;2.35;;
10667;SDS011;5382;42.136;24.796;2023-04-30T10:04:41;4.80;;;2.20;;
10667;SDS011;5382;42.136;24.796;2023-04-30T10:07:11;2.67;;;2.28;;
10667;SDS011;5382;42.136;24.796;2023-04-30T10:09:40;3.35;;;2.00;;
10667;SDS011;5382;42.136;24.796;2023-04-30T10:12:14;2.33;;;1.90;;
10667;SDS011;5382;42.136;24.796;2023-04-30T10:14:47;2.83;;;2.00;;
10667;SDS011;5382;42.136;24.796;2023-04-30T10:17:19;4.03;;;1.90;;
10667;SDS011;5382;42.136;24.796;2023-04-30T10:19:49;3.15;;;2.20;;
10667;SDS011;5382;42.136;24.796;2023-04-30T10:22:20;4.07;;;2.17;;
10667;SDS011;5382;42.136;24.796;2023-04-30T10:25:04;2.63;;;2.20;;
10667;SDS011;5382;42.136;24.796;2023-04-30T10:27:35;3.60;;;2.45;;
10667;SDS011;5382;42.136;24.796;2023-04-30T10:30:02;4.68;;;2.40;;
10667;SDS011;5382;42.136;24.796;2023-04-30T10:32:32;3.42;;;2.35;;
10667;SDS011;5382;42.136;24.796;2023-04-30T10:35:06;2.53;;;2.20;;
10667;SDS011;5382;42.136;24.796;2023-04-30T10:37:42;4.13;;;2.17;;
10667;SDS011;5382;42.136;24.796;2023-04-30T10:40:13;3.60;;;2.67;;
10667;SDS011;5382;42.136;24.796;2023-04-30T10:42:44;2.30;;;2.10;;
10667;SDS011;5382;42.136;24.796;2023-04-30T10:45:11;4.53;;;2.72;;
10667;SDS011;5382;42.136;24.796;2023-04-30T10:47:42;4.40;;;2.55;;
10667;SDS011;5382;42.136;24.796;2023-04-30T10:50:10;3.97;;;2.70;;
10667;SDS011;5382;42.136;24.796;2023-04-30T10:52:38;3.35;;;2.42;;
10667;SDS011;5382;42.136;24.796;2023-04-30T10:55:05;3.25;;;2.35;;
10667;SDS011;5382;42.136;24.796;2023-04-30T10:57:39;4.53;;;2.53;;
10667;SDS011;5382;42.136;24.796;2023-04-30T11:00:19;2.92;;;2.40;;
10667;SDS011;5382;42.136;24.796;2023-04-30T11:02:54;4.78;;;2.10;;
10667;SDS011;5382;42.136;24.796;2023-04-30T11:05:33;3.95;;;2.78;;
10667;SDS011;5382;42.136;24.796;2023-04-30T11:08:00;4.45;;;2.53;;
10667;SDS011;5382;42.136;24.796;2023-04-30T11:10:30;4.68;;;4.18;;
10667;SDS011;5382;42.136;24.796;2023-04-30T11:12:58;4.78;;;2.53;;
10667;SDS011;5382;42.136;24.796;2023-04-30T11:15:31;2.85;;;2.15;;
10667;SDS011;5382;42.136;24.796;2023-04-30T11:18:02;2.55;;;2.13;;
10667;SDS011;5382;42.136;24.796;2023-04-30T11:20:28;2.25;;;2.05;;
10667;SDS011;5382;42.136;24.796;2023-04-30T11:23:08;3.67;;;1.92;;
10667;SDS011;5382;42.136;24.796;2023-04-30T11:25:40;3.28;;;2.25;;
10667;SDS011;5382;42.136;24.796;2023-04-30T11:28:07;3.05;;;2.17;;
10667;SDS011;5382;42.136;24.796;2023-04-30T11:30:39;3.55;;;1.90;;
10667;SDS011;5382;42.136;24.796;2023-04-30T11:33:09;7.97;;;2.40;;
10667;SDS011;5382;42.136;24.796;2023-04-30T11:35:36;3.67;;;2.30;;
10667;SDS011;5382;42.136;24.796;2023-04-30T11:38:03;4.65;;;1.98;;
10667;SDS011;5382;42.136;24.796;2023-04-30T11:40:33;3.78;;;1.95;;
10667;SDS011;5382;42.136;24.796;2023-04-30T11:43:01;3.15;;;1.90;;
10667;SDS011;5382;42.136;24.796;2023-04-30T11:45:28;2.65;;;1.80;;
10667;SDS011;5382;42.136;24.796;2023-04-30T11:47:55;2.88;;;2.13;;
10667;SDS011;5382;42.136;24.796;2023-04-30T11:50:24;3.92;;;1.98;;
10667;SDS011;5382;42.136;24.796;2023-04-30T11:52:53;5.82;;;2.50;;
10667;SDS011;5382;42.136;24.796;2023-04-30T11:55:22;3.72;;;2.35;;
10667;SDS011;5382;42.136;24.796;2023-04-30T11:57:51;2.97;;;2.47;;
10667;SDS011;5382;42.136;24.796;2023-04-30T12:00:21;3.10;;;2.38;;
10667;SDS011;5382;42.136;24.796;2023-04-30T12:02:52;6.85;;;2.30;;
10667;SDS011;5382;42.136;24.796;2023-04-30T12:05:19;3.08;;;2.33;;
10667;SDS011;5382;42.136;24.796;2023-04-30T12:07:49;2.42;;;1.95;;
10667;SDS011;5382;42.136;24.796;2023-04-30T12:10:20;3.47;;;2.30;;
10667;SDS011;5382;42.136;24.796;2023-04-30T12:12:47;4.55;;;2.10;;
10667;SDS011;5382;42.136;24.796;2023-04-30T12:15:16;2.00;;;1.80;;
10667;SDS011;5382;42.136;24.796;2023-04-30T12:17:44;5.55;;;2.33;;
10667;SDS011;5382;42.136;24.796;2023-04-30T12:20:12;2.88;;;1.88;;
10667;SDS011;5382;42.136;24.796;2023-04-30T12:22:40;3.83;;;1.85;;
10667;SDS011;5382;42.136;24.796;2023-04-30T12:25:10;2.40;;;1.58;;
10667;SDS011;5382;42.136;24.796;2023-04-30T12:27:39;3.05;;;2.15;;
10667;SDS011;5382;42.136;24.796;2023-04-30T12:30:07;2.15;;;1.95;;
10667;SDS011;5382;42.136;24.796;2023-04-30T12:32:38;4.35;;;2.30;;
10667;SDS011;5382;42.136;24.796;2023-04-30T12:35:06;3.63;;;2.00;;
10667;SDS011;5382;42.136;24.796;2023-04-30T12:37:34;5.00;;;2.22;;
10667;SDS011;5382;42.136;24.796;2023-04-30T12:40:01;5.80;;;1.90;;
10667;SDS011;5382;42.136;24.796;2023-04-30T12:42:34;3.72;;;1.95;;
10667;SDS011;5382;42.136;24.796;2023-04-30T12:45:02;3.20;;;1.77;;
10667;SDS011;5382;42.136;24.796;2023-04-30T12:47:29;2.17;;;1.30;;
10667;SDS011;5382;42.136;24.796;2023-04-30T12:49:56;1.85;;;1.40;;
10667;SDS011;5382;42.136;24.796;2023-04-30T12:52:23;1.92;;;1.60;;
10667;SDS011;5382;42.136;24.796;2023-04-30T12:54:51;2.28;;;1.63;;
10667;SDS011;5382;42.136;24.796;2023-04-30T12:57:18;3.25;;;1.30;;
10667;SDS011;5382;42.136;24.796;2023-04-30T12:59:58;2.13;;;1.48;;
10667;SDS011;5382;42.136;24.796;2023-04-30T13:02:26;3.88;;;2.65;;
10667;SDS011;5382;42.136;24.796;2023-04-30T13:04:56;2.75;;;1.90;;
10667;SDS011;5382;42.136;24.796;2023-04-30T13:07:23;2.08;;;1.70;;
10667;SDS011;5382;42.136;24.796;2023-04-30T13:09:49;3.95;;;1.77;;
10667;SDS011;5382;42.136;24.796;2023-04-30T13:12:16;3.42;;;2.10;;
10667;SDS011;5382;42.136;24.796;2023-04-30T13:14:43;2.28;;;2.08;;
10667;SDS011;5382;42.136;24.796;2023-04-30T13:17:11;3.65;;;2.60;;
10667;SDS011;5382;42.136;24.796;2023-04-30T13:19:38;3.03;;;2.22;;
10667;SDS011;5382;42.136;24.796;2023-04-30T13:22:05;4.80;;;2.70;;
10667;SDS011;5382;42.136;24.796;2023-04-30T13:24:32;3.83;;;2.95;;
10667;SDS011;5382;42.136;24.796;2023-04-30T13:26:59;6.65;;;3.15;;
10667;SDS011;5382;42.136;24.796;2023-04-30T13:29:26;3.75;;;2.25;;
10667;SDS011;5382;42.136;24.796;2023-04-30T13:31:53;9.82;;;3.60;;
10667;SDS011;5382;42.136;24.796;2023-04-30T13:34:21;5.15;;;2.53;;
10667;SDS011;5382;42.136;24.796;2023-04-30T13:36:48;4.72;;;3.35;;
10667;SDS011;5382;42.136;24.796;2023-04-30T13:39:16;4.03;;;2.90;;
10667;SDS011;5382;42.136;24.796;2023-04-30T13:41:43;8.02;;;2.92;;
10667;SDS011;5382;42.136;24.796;2023-04-30T13:44:12;3.90;;;2.72;;
10667;SDS011;5382;42.136;24.796;2023-04-30T13:46:38;3.00;;;2.55;;
10667;SDS011;5382;42.136;24.796;2023-04-30T13:49:05;2.25;;;2.00;;
10667;SDS011;5382;42.136;24.796;2023-04-30T13:51:33;4.47;;;2.38;;
10667;SDS011;5382;42.136;24.796;2023-04-30T13:54:00;4.82;;;3.45;;
10667;SDS011;5382;42.136;24.796;2023-04-30T13:56:27;4.38;;;3.35;;
10667;SDS011;5382;42.136;24.796;2023-04-30T13:58:54;4.35;;;3.55;;
10667;SDS011;5382;42.136;24.796;2023-04-30T14:01:21;5.53;;;4.20;;
10667;SDS011;5382;42.136;24.796;2023-04-30T14:03:47;4.63;;;3.10;;
10667;SDS011;5382;42.136;24.796;2023-04-30T14:06:14;3.90;;;3.42;;
10667;SDS011;5382;42.136;24.796;2023-04-30T14:08:42;4.35;;;3.58;;
10667;SDS011;5382;42.136;24.796;2023-04-30T14:11:09;4.40;;;3.25;;
10667;SDS011;5382;42.136;24.796;2023-04-30T14:13:36;3.08;;;2.70;;
10667;SDS011;5382;42.136;24.796;2023-04-30T14:16:03;2.65;;;2.42;;
10667;SDS011;5382;42.136;24.796;2023-04-30T14:18:30;5.18;;;3.20;;
10667;SDS011;5382;42.136;24.796;2023-04-30T14:20:57;2.85;;;2.35;;
10667;SDS011;5382;42.136;24.796;2023-04-30T14:23:23;3.10;;;2.80;;
10667;SDS011;5382;42.136;24.796;2023-04-30T14:25:51;3.03;;;2.28;;
10667;SDS011;5382;42.136;24.796;2023-04-30T14:28:19;5.00;;;4.05;;
10667;SDS011;5382;42.136;24.796;2023-04-30T14:30:46;7.57;;;3.90;;
10667;SDS011;5382;42.136;24.796;2023-04-30T14:33:12;5.50;;;3.15;;
10667;SDS011;5382;42.136;24.796;2023-04-30T14:35:39;3.78;;;3.05;;
10667;SDS011;5382;42.136;24.796;2023-04-30T14:38:06;3.78;;;3.08;;
10667;SDS011;5382;42.136;24.796;2023-04-30T14:40:33;4.90;;;3.78;;
10667;SDS011;5382;42.136;24.796;2023-04-30T14:43:01;4.07;;;3.20;;
10667;SDS011;5382;42.136;24.796;2023-04-30T14:45:28;2.88;;;2.53;;
10667;SDS011;5382;42.136;24.796;2023-04-30T14:47:55;4.05;;;3.08;;
10667;SDS011;5382;42.136;24.796;2023-04-30T14:50:22;3.55;;;2.58;;
10667;SDS011;5382;42.136;24.796;2023-04-30T14:52:49;3.70;;;2.78;;
10667;SDS011;5382;42.136;24.796;2023-04-30T14:55:15;3.78;;;2.10;;